createdAt,value
2019-03-09T00:00:43.009Z,69.90
2019-03-09T00:03:30.005Z,70.00
2019-03-09T00:06:15.876Z,70.40
2019-03-09T00:09:01.197Z,70.80
2019-03-09T00:11:46.467Z,71.00
2019-03-09T00:14:32.282Z,71.20
2019-03-09T00:17:17.651Z,71.60
2019-03-09T00:20:05.139Z,72.00
2019-03-09T00:23:04.063Z,72.00
2019-03-09T00:26:09.925Z,72.10
2019-03-09T00:32:16.408Z,72.70
2019-03-09T00:35:01.540Z,72.90
2019-03-09T00:37:46.746Z,73.20
2019-03-09T00:40:31.782Z,73.50
2019-03-09T00:43:16.902Z,73.50
2019-03-09T00:46:02.542Z,73.70
2019-03-09T00:48:47.772Z,73.90
2019-03-09T00:51:52.902Z,74.10
2019-03-09T00:54:37.995Z,74.40
2019-03-09T00:57:23.332Z,74.50
2019-03-09T01:00:12.522Z,74.30
2019-03-09T01:03:00.029Z,74.60
2019-03-09T01:05:45.261Z,74.70
2019-03-09T01:08:30.444Z,74.90
2019-03-09T01:11:16.119Z,74.90
2019-03-09T01:14:01.156Z,75.20
2019-03-09T01:16:46.631Z,75.40
2019-03-09T01:19:32.130Z,75.60
2019-03-09T01:22:17.304Z,75.60
2019-03-09T01:25:03.243Z,75.60
2019-03-09T01:27:48.190Z,75.50
2019-03-09T01:30:34.520Z,75.40
2019-03-09T01:33:20.125Z,75.20
2019-03-09T01:36:05.002Z,75.20
2019-03-09T01:38:50.215Z,75.30
2019-03-09T01:41:36.895Z,75.30
2019-03-09T01:44:24.232Z,75.30
2019-03-09T01:47:09.478Z,75.30
2019-03-09T01:52:50.210Z,74.90
2019-03-09T01:55:37.418Z,75.00
2019-03-09T01:58:22.613Z,75.30
2019-03-09T02:01:08.805Z,75.70
2019-03-09T02:03:55.122Z,75.70
2019-03-09T02:06:39.854Z,75.80
2019-03-09T02:09:24.892Z,75.40
2019-03-09T02:12:10.198Z,75.60
2019-03-09T02:14:55.188Z,76.00
2019-03-09T02:17:40.521Z,75.90
2019-03-09T02:20:25.873Z,75.90
2019-03-09T02:23:12.589Z,75.60
2019-03-09T02:25:57.644Z,75.50
2019-03-09T02:28:43.988Z,75.50
2019-03-09T02:31:29.026Z,75.80
2019-03-09T02:34:14.474Z,75.60
2019-03-09T02:36:59.548Z,75.10
2019-03-09T02:39:46.754Z,75.30
2019-03-09T02:42:31.646Z,75.30
2019-03-09T02:45:19.647Z,75.40
2019-03-09T02:48:05.019Z,75.40
2019-03-09T02:50:56.853Z,75.40
2019-03-09T02:53:42.251Z,75.10
2019-03-09T02:56:27.566Z,75.10
2019-03-09T02:59:12.848Z,75.30
2019-03-09T03:01:59.940Z,75.60
2019-03-09T03:04:46.212Z,75.70
2019-03-09T03:07:31.582Z,75.80
2019-03-09T03:10:16.852Z,75.80
2019-03-09T03:13:02.113Z,75.90
2019-03-09T03:15:47.885Z,75.90
2019-03-09T03:18:33.244Z,76.10
2019-03-09T03:21:19.007Z,76.40
2019-03-09T03:24:04.277Z,76.40
2019-03-09T03:26:49.511Z,76.80
2019-03-09T03:29:34.798Z,76.90
2019-03-09T03:32:20.009Z,77.00
2019-03-09T03:35:07.447Z,77.40
2019-03-09T03:37:53.047Z,77.60
2019-03-09T03:40:38.155Z,77.80
2019-03-09T03:43:23.653Z,78.60
2019-03-09T03:46:08.842Z,78.60
2019-03-09T03:48:53.876Z,79.10
2019-03-09T03:51:38.671Z,79.60
2019-03-09T03:54:23.952Z,79.40
2019-03-09T03:57:09.466Z,79.60
2019-03-09T03:59:54.473Z,79.70
2019-03-09T04:02:41.295Z,79.50
2019-03-09T04:05:27.513Z,79.40
2019-03-09T04:08:13.633Z,79.50
2019-03-09T04:10:58.753Z,79.40
2019-03-09T04:13:44.424Z,79.20
2019-03-09T04:16:29.644Z,79.50
2019-03-09T04:19:14.690Z,79.40
2019-03-09T04:21:59.845Z,79.20
2019-03-09T04:24:45.222Z,79.30
2019-03-09T04:27:30.216Z,79.20
2019-03-09T04:30:15.630Z,79.00
2019-03-09T04:33:00.477Z,78.80
2019-03-09T04:35:45.785Z,78.90
2019-03-09T04:38:30.685Z,79.20
2019-03-09T04:41:17.059Z,79.60
2019-03-09T04:44:02.485Z,80.00
2019-03-09T04:46:47.560Z,80.10
2019-03-09T04:49:32.911Z,80.30
2019-03-09T04:52:18.345Z,80.50
2019-03-09T04:55:06.651Z,80.80
2019-03-09T04:57:52.130Z,80.60
2019-03-09T05:00:37.285Z,80.90
2019-03-09T05:03:22.523Z,80.90
2019-03-09T05:06:08.652Z,80.70
2019-03-09T05:08:59.406Z,80.60
2019-03-09T05:11:44.244Z,80.50
2019-03-09T05:14:29.692Z,80.30
2019-03-09T05:17:14.874Z,80.30
2019-03-09T05:20:00.468Z,80.10
2019-03-09T05:22:45.335Z,80.00
2019-03-09T05:25:30.285Z,79.90
2019-03-09T05:28:15.342Z,79.80
2019-03-09T05:31:01.056Z,80.00
2019-03-09T05:33:46.177Z,79.80
2019-03-09T05:36:31.413Z,79.70
2019-03-09T05:39:16.579Z,79.60
2019-03-09T05:42:01.735Z,79.50
2019-03-09T05:44:46.885Z,79.40
2019-03-09T05:47:32.543Z,79.30
2019-03-09T05:50:17.701Z,79.10
2019-03-09T05:53:07.608Z,79.10
2019-03-09T05:55:52.746Z,79.00
2019-03-09T05:58:37.865Z,78.70
2019-03-09T06:01:23.352Z,78.40
2019-03-09T06:04:08.434Z,78.20
2019-03-09T06:06:54.004Z,78.00
2019-03-09T06:09:38.993Z,78.10
2019-03-09T06:12:24.156Z,78.20
2019-03-09T06:15:09.140Z,78.50
2019-03-09T06:17:54.619Z,78.70
2019-03-09T06:20:39.901Z,79.60
2019-03-09T06:23:25.208Z,80.00
2019-03-09T06:26:10.586Z,80.90
2019-03-09T06:28:55.575Z,81.00
2019-03-09T06:32:02.565Z,81.60
2019-03-09T06:34:47.654Z,81.60
2019-03-09T06:37:32.865Z,81.40
2019-03-09T06:40:18.301Z,81.70
2019-03-09T06:43:03.993Z,81.60
2019-03-09T06:45:48.943Z,82.20
2019-03-09T06:48:34.063Z,81.90
2019-03-09T06:51:18.886Z,81.70
2019-03-09T06:54:04.183Z,81.30
2019-03-09T06:56:49.512Z,81.30
2019-03-09T06:59:34.793Z,81.10
2019-03-09T07:02:20.306Z,80.50
2019-03-09T07:05:06.242Z,80.00
2019-03-09T07:07:51.147Z,80.00
2019-03-09T07:10:36.808Z,79.60
2019-03-09T07:13:21.991Z,79.50
2019-03-09T07:16:07.062Z,79.10
2019-03-09T07:18:52.461Z,79.00
2019-03-09T07:21:37.686Z,78.80
2019-03-09T07:24:23.844Z,78.60
2019-03-09T07:27:09.127Z,78.40
2019-03-09T07:29:54.773Z,78.20
2019-03-09T07:32:39.822Z,77.90
2019-03-09T07:35:25.365Z,77.70
2019-03-09T07:38:10.365Z,77.30
2019-03-09T07:40:55.565Z,77.00
2019-03-09T07:43:42.543Z,76.80
2019-03-09T07:46:27.616Z,76.70
2019-03-09T07:49:13.041Z,76.30
2019-03-09T07:52:00.302Z,76.10
2019-03-09T07:54:45.654Z,75.70
2019-03-09T07:57:30.943Z,76.30
2019-03-09T08:00:18.230Z,75.50
2019-03-09T08:03:03.753Z,74.80
2019-03-09T08:05:49.135Z,74.50
2019-03-09T08:08:34.237Z,74.40
2019-03-09T08:11:19.915Z,74.30
2019-03-09T08:14:05.359Z,74.60
2019-03-09T08:16:50.491Z,74.40
2019-03-09T08:19:35.745Z,74.50
2019-03-09T08:22:21.689Z,74.20
2019-03-09T08:25:10.199Z,74.00
2019-03-09T08:27:55.417Z,73.50
2019-03-09T08:30:44.911Z,72.30
2019-03-09T08:33:30.974Z,71.40
2019-03-09T08:36:17.296Z,71.60
2019-03-09T08:39:04.813Z,70.80
2019-03-09T08:41:50.210Z,70.10
2019-03-09T08:44:35.404Z,69.90
2019-03-09T08:47:20.932Z,70.00
2019-03-09T08:50:09.754Z,69.20
2019-03-09T08:52:54.384Z,69.40
2019-03-09T08:55:39.581Z,69.40
2019-03-09T08:58:24.719Z,69.80
2019-03-09T09:01:10.691Z,69.70
2019-03-09T09:03:56.987Z,70.00
2019-03-09T09:06:42.204Z,69.70
2019-03-09T09:09:27.473Z,69.80
2019-03-09T09:12:14.163Z,70.30
2019-03-09T09:14:59.359Z,69.30
2019-03-09T09:17:46.760Z,69.10
2019-03-09T09:20:31.895Z,68.70
2019-03-09T09:23:19.109Z,68.30
2019-03-09T09:26:13.383Z,68.00
2019-03-09T09:29:00.100Z,67.80
2019-03-09T09:31:44.894Z,67.90
2019-03-09T09:34:30.494Z,68.50
2019-03-09T09:37:16.730Z,69.70
2019-03-09T09:42:54.174Z,73.40
2019-03-09T09:45:40.212Z,77.40
2019-03-09T09:48:25.705Z,77.90
2019-03-09T09:51:13.161Z,79.70
2019-03-09T09:53:57.848Z,81.70
2019-03-09T09:56:42.665Z,82.50
2019-03-09T09:59:27.907Z,83.60
2019-03-09T10:02:14.220Z,84.50
2019-03-09T10:05:02.871Z,84.80
2019-03-09T10:07:48.521Z,85.00
2019-03-09T10:10:33.997Z,85.40
2019-03-09T10:13:19.447Z,85.10
2019-03-09T10:16:04.700Z,85.10
2019-03-09T10:18:49.929Z,85.20
2019-03-09T10:21:36.768Z,85.40
2019-03-09T10:24:22.587Z,86.10
2019-03-09T10:27:08.076Z,86.70
2019-03-09T10:29:53.290Z,86.70
2019-03-09T10:32:38.372Z,86.70
2019-03-09T10:35:24.120Z,87.30
2019-03-09T10:38:09.270Z,90.30
2019-03-09T10:40:55.300Z,91.20
2019-03-09T10:43:40.350Z,90.50
2019-03-09T10:46:26.213Z,90.20
2019-03-09T10:49:31.289Z,90.10
2019-03-09T10:52:16.056Z,90.40
2019-03-09T10:55:01.605Z,90.70
2019-03-09T10:57:46.851Z,90.90
2019-03-09T11:00:39.253Z,91.40
2019-03-09T11:03:24.339Z,91.90
2019-03-09T11:06:11.226Z,92.10
2019-03-09T11:08:56.633Z,92.40
2019-03-09T11:11:54.191Z,92.60
2019-03-09T11:14:40.192Z,92.90
2019-03-09T11:17:25.773Z,93.30
2019-03-09T11:20:14.555Z,92.70
2019-03-09T11:23:00.038Z,93.00
2019-03-09T11:25:45.295Z,93.20
2019-03-09T11:28:30.476Z,93.50
2019-03-09T11:31:15.251Z,93.40
2019-03-09T11:34:00.373Z,93.30
2019-03-09T11:36:46.312Z,93.70
2019-03-09T11:39:31.512Z,93.70
2019-03-09T11:42:16.971Z,93.60
2019-03-09T11:45:02.227Z,93.50
2019-03-09T11:47:47.742Z,93.50
2019-03-09T11:50:33.126Z,93.70
2019-03-09T11:53:18.161Z,94.00
2019-03-09T11:56:03.787Z,93.60
2019-03-09T11:58:48.809Z,93.70
2019-03-09T12:01:34.224Z,93.80
2019-03-09T12:04:20.331Z,93.70
2019-03-09T12:07:05.573Z,93.50
2019-03-09T12:09:51.097Z,93.40
2019-03-09T12:12:36.395Z,93.40
2019-03-09T12:15:21.822Z,93.10
2019-03-09T12:18:06.799Z,92.90
2019-03-09T12:20:51.987Z,92.90
2019-03-09T12:23:37.256Z,92.30
2019-03-09T12:26:22.964Z,92.00
2019-03-09T12:29:08.754Z,91.60
2019-03-09T12:31:53.754Z,91.30
2019-03-09T12:34:39.150Z,91.60
2019-03-09T12:37:24.498Z,90.70
2019-03-09T12:40:16.415Z,90.00
2019-03-09T12:43:01.421Z,89.60
2019-03-09T12:45:48.777Z,88.10
2019-03-09T12:48:37.050Z,87.40
2019-03-09T12:51:24.831Z,87.00
2019-03-09T12:54:10.583Z,87.20
2019-03-09T12:56:59.124Z,87.60
2019-03-09T12:59:44.645Z,88.10
2019-03-09T13:02:29.818Z,87.10
2019-03-09T13:05:16.349Z,87.30
2019-03-09T13:08:01.821Z,87.30
2019-03-09T13:10:47.137Z,85.80
2019-03-09T13:13:33.777Z,84.50
2019-03-09T13:16:19.020Z,81.60
2019-03-09T13:19:05.810Z,80.90
2019-03-09T13:21:50.914Z,79.00
2019-03-09T13:24:36.575Z,77.30
2019-03-09T13:27:21.549Z,75.80
2019-03-09T13:30:18.955Z,74.70
2019-03-09T13:33:04.310Z,74.10
2019-03-09T13:35:50.584Z,72.60
2019-03-09T13:38:35.891Z,72.80
2019-03-09T13:41:22.307Z,73.10
2019-03-09T13:44:07.768Z,72.00
2019-03-09T13:46:52.730Z,72.70
2019-03-09T13:49:38.059Z,72.50
2019-03-09T13:52:23.573Z,71.30
2019-03-09T13:55:09.526Z,71.60
2019-03-09T13:57:54.744Z,69.80
2019-03-09T14:00:40.669Z,69.90
2019-03-09T14:03:26.968Z,71.20
2019-03-09T14:06:11.948Z,70.30
2019-03-09T14:08:56.879Z,71.30
2019-03-09T14:11:42.613Z,70.00
2019-03-09T14:14:27.685Z,69.40
2019-03-09T14:17:12.504Z,70.00
2019-03-09T14:19:57.610Z,70.20
2019-03-09T14:22:43.985Z,69.80
2019-03-09T14:25:28.978Z,70.60
2019-03-09T14:28:14.264Z,70.80
2019-03-09T14:30:59.542Z,70.30
2019-03-09T14:33:46.706Z,70.30
2019-03-09T14:36:31.603Z,70.60
2019-03-09T14:39:16.887Z,70.00
2019-03-09T14:42:02.237Z,69.30
2019-03-09T14:44:47.591Z,69.30
2019-03-09T14:47:32.861Z,69.90
2019-03-09T14:50:20.148Z,69.40
2019-03-09T14:53:05.486Z,70.30
2019-03-09T14:55:51.944Z,70.00
2019-03-09T14:58:37.178Z,70.00
2019-03-09T15:01:22.569Z,70.30
2019-03-09T15:04:07.718Z,70.40
2019-03-09T15:06:52.976Z,70.90
2019-03-09T15:09:39.171Z,71.40
2019-03-09T15:12:24.781Z,73.20
2019-03-09T15:15:31.269Z,75.80
2019-03-09T15:18:16.572Z,80.00
2019-03-09T15:21:02.055Z,86.10
2019-03-09T15:23:47.602Z,89.10
2019-03-09T15:26:34.035Z,90.10
2019-03-09T15:29:19.614Z,90.60
2019-03-09T15:32:05.799Z,91.20
2019-03-09T15:34:50.525Z,91.00
2019-03-09T15:37:35.467Z,90.90
2019-03-09T15:40:21.417Z,91.10
2019-03-09T15:43:07.569Z,90.90
2019-03-09T15:45:52.857Z,91.10
2019-03-09T15:48:38.073Z,91.10
2019-03-09T15:51:23.367Z,90.80
2019-03-09T15:54:08.948Z,91.20
2019-03-09T15:56:55.632Z,90.80
2019-03-09T15:59:41.924Z,90.80
2019-03-09T16:02:27.100Z,91.10
2019-03-09T16:05:13.552Z,91.10
2019-03-09T16:07:58.622Z,91.20
2019-03-09T16:10:43.864Z,91.50
2019-03-09T16:13:48.827Z,91.50
2019-03-09T16:16:36.297Z,91.40
2019-03-09T16:19:20.996Z,91.20
2019-03-09T16:22:06.839Z,91.10
2019-03-09T16:24:51.917Z,90.90
2019-03-09T16:27:37.277Z,90.80
2019-03-09T16:30:23.123Z,90.50
2019-03-09T16:33:08.783Z,90.00
2019-03-09T16:35:54.152Z,87.00
2019-03-09T16:38:39.458Z,86.10
2019-03-09T16:41:24.762Z,86.10
2019-03-09T16:44:09.889Z,84.20
2019-03-09T16:46:55.108Z,83.80
2019-03-09T16:49:40.539Z,83.50
2019-03-09T16:52:26.551Z,84.00
2019-03-09T16:55:14.639Z,84.60
2019-03-09T16:58:19.822Z,85.40
2019-03-09T17:01:05.810Z,85.80
2019-03-09T17:03:52.564Z,86.50
2019-03-09T17:06:37.921Z,87.00
2019-03-09T17:09:25.106Z,87.40
2019-03-09T17:12:10.670Z,87.90
2019-03-09T17:14:55.871Z,88.20
2019-03-09T17:17:42.932Z,88.50
2019-03-09T17:20:28.007Z,88.90
2019-03-09T17:23:13.387Z,89.20
2019-03-09T17:26:00.742Z,89.70
2019-03-09T17:28:45.899Z,90.10
2019-03-09T17:31:31.460Z,90.20
2019-03-09T17:34:16.369Z,90.20
2019-03-09T17:37:01.702Z,90.40
2019-03-09T17:39:47.080Z,90.50
2019-03-09T17:42:32.656Z,90.40
2019-03-09T17:45:23.616Z,90.60
2019-03-09T17:48:08.884Z,90.60
2019-03-09T17:50:54.456Z,90.50
2019-03-09T17:53:40.766Z,90.30
2019-03-09T17:56:26.454Z,90.10
2019-03-09T17:59:11.378Z,89.90
2019-03-09T18:01:56.146Z,90.00
2019-03-09T18:04:41.332Z,89.80
2019-03-09T18:07:26.198Z,89.50
2019-03-09T18:10:15.063Z,89.30
2019-03-09T18:13:00.609Z,89.60
2019-03-09T18:15:46.922Z,89.30
2019-03-09T18:18:32.365Z,88.90
2019-03-09T18:21:19.202Z,88.30
2019-03-09T18:24:04.797Z,87.90
2019-03-09T18:26:49.604Z,87.40
2019-03-09T18:29:34.757Z,87.20
2019-03-09T18:32:20.249Z,86.90
2019-03-09T18:35:08.739Z,86.00
2019-03-09T18:37:54.169Z,85.80
2019-03-09T18:40:39.633Z,85.40
2019-03-09T18:43:25.346Z,84.70
2019-03-09T18:46:10.818Z,83.90
2019-03-09T18:48:56.596Z,83.90
2019-03-09T18:51:41.699Z,83.60
2019-03-09T18:54:26.953Z,83.80
2019-03-09T18:57:12.788Z,84.00
2019-03-09T19:00:00.347Z,84.20
2019-03-09T19:02:45.641Z,83.90
2019-03-09T19:05:30.879Z,84.00
2019-03-09T19:08:16.532Z,83.80
2019-03-09T19:11:01.463Z,83.80
2019-03-09T19:13:47.295Z,83.80
2019-03-09T19:16:31.930Z,83.80
2019-03-09T19:19:17.241Z,83.80
2019-03-09T19:22:02.551Z,83.70
2019-03-09T19:24:48.036Z,83.50
2019-03-09T19:27:33.273Z,83.70
2019-03-09T19:30:22.379Z,83.70
2019-03-09T19:33:08.353Z,83.80
2019-03-09T19:35:53.742Z,83.70
2019-03-09T19:38:39.061Z,84.00
2019-03-09T19:41:24.400Z,84.00
2019-03-09T19:44:09.303Z,84.30
2019-03-09T19:46:54.480Z,84.10
2019-03-09T19:49:39.728Z,84.10
2019-03-09T19:52:25.317Z,84.10
2019-03-09T19:55:10.290Z,84.20
2019-03-09T19:57:55.516Z,84.50
2019-03-09T20:00:40.891Z,84.60
2019-03-09T20:03:26.021Z,84.60
2019-03-09T20:06:11.085Z,84.80
2019-03-09T20:08:56.386Z,85.10
2019-03-09T20:11:41.705Z,85.00
2019-03-09T20:14:27.078Z,85.00
2019-03-09T20:17:12.289Z,85.10
2019-03-09T20:19:57.575Z,85.10
2019-03-09T20:22:42.706Z,85.10
2019-03-09T20:25:28.642Z,85.00
2019-03-09T20:28:14.117Z,85.20
2019-03-09T20:30:59.316Z,85.20
2019-03-09T20:33:45.681Z,85.30
2019-03-09T20:36:30.796Z,85.10
2019-03-09T20:39:16.288Z,85.10
2019-03-09T20:42:01.665Z,85.20
2019-03-09T20:44:48.273Z,85.10
2019-03-09T20:47:33.654Z,85.20
2019-03-09T20:50:20.728Z,85.10
2019-03-09T20:53:06.740Z,85.30
2019-03-09T20:55:52.013Z,85.10
2019-03-09T20:58:38.283Z,85.10
2019-03-09T21:01:23.739Z,85.20
2019-03-09T21:04:08.919Z,85.20
2019-03-09T21:06:55.437Z,85.40
2019-03-09T21:09:40.651Z,85.30
2019-03-09T21:12:25.765Z,85.10
2019-03-09T21:15:12.131Z,85.10
2019-03-09T21:17:57.437Z,85.30
2019-03-09T21:20:42.828Z,85.40
2019-03-09T21:23:29.362Z,85.60
2019-03-09T21:26:14.465Z,85.70
2019-03-09T21:29:02.440Z,86.30
2019-03-09T21:31:47.394Z,86.80
2019-03-09T21:34:32.836Z,87.30
2019-03-09T21:37:17.685Z,88.30
2019-03-09T21:40:05.027Z,89.60
2019-03-09T21:42:51.335Z,90.20
2019-03-09T21:45:36.921Z,90.40
2019-03-09T21:48:22.095Z,90.60
2019-03-09T21:51:13.555Z,90.80
2019-03-09T21:53:56.317Z,90.80
2019-03-09T21:56:41.047Z,91.10
2019-03-09T21:59:25.765Z,91.30
2019-03-09T22:02:10.721Z,91.60
2019-03-09T22:04:58.291Z,92.10
2019-03-09T22:07:43.631Z,92.30
2019-03-09T22:10:29.036Z,92.50
2019-03-09T22:13:14.209Z,92.60
2019-03-09T22:16:01.678Z,92.90
2019-03-09T22:18:46.964Z,93.00
2019-03-09T22:21:32.303Z,93.30
2019-03-09T22:24:19.220Z,93.40
2019-03-09T22:27:07.424Z,93.40
2019-03-09T22:29:53.380Z,93.30
2019-03-09T22:32:38.212Z,93.20
2019-03-09T22:35:23.006Z,93.10
2019-03-09T22:38:08.166Z,93.30
2019-03-09T22:40:53.964Z,93.70
2019-03-09T22:43:39.459Z,93.90
2019-03-09T22:46:24.645Z,93.80
2019-03-09T22:49:10.034Z,93.90
2019-03-09T22:51:55.033Z,93.90
2019-03-09T22:54:40.496Z,94.60
2019-03-09T22:57:26.534Z,94.80
2019-03-09T23:00:20.853Z,94.60
2019-03-09T23:03:10.246Z,94.90
2019-03-09T23:05:54.345Z,95.30
2019-03-09T23:08:39.285Z,95.60
2019-03-09T23:11:24.516Z,95.80
2019-03-09T23:14:09.371Z,95.80
2019-03-09T23:16:54.976Z,96.00
2019-03-09T23:19:40.069Z,96.30
2019-03-09T23:22:25.206Z,96.40
2019-03-09T23:25:11.826Z,96.10
2019-03-09T23:27:56.798Z,96.10
2019-03-09T23:30:41.672Z,96.00
2019-03-09T23:33:26.922Z,96.20
2019-03-09T23:36:12.506Z,96.30
2019-03-09T23:38:57.777Z,96.40
2019-03-09T23:41:43.081Z,96.40
2019-03-09T23:44:28.361Z,96.60
2019-03-09T23:47:13.827Z,96.70
2019-03-09T23:49:58.920Z,96.50
2019-03-09T23:52:44.736Z,96.30
2019-03-09T23:55:30.129Z,96.00
2019-03-09T23:58:15.316Z,96.00
